Time;durP1;ratioP1;P1;durP2;ratioP2;P2;SDS_P1;SDS_P2;PMS_P1;PMS_P2;Temp;Humidity;BMP_temperature;BMP_pressure;BME280_temperature;BME280_humidity;BME280_pressure;Samples;Min_cycle;Max_cycle;Signal;HPM_P1;HPM_P2
2022/12/15 00:38:49;;;;;;;35.08;19.73;;;;;;;;;;5010649;28;20407;-53
2022/12/15 00:41:17;;;;;;;36.85;20.10;;;;;;;;;;5010606;28;20042;-56
2022/12/15 00:43:45;;;;;;;35.58;20.27;;;;;;;;;;5010496;28;20103;-55
2022/12/15 00:48:59;;;;;;;35.88;20.38;;;;;;;;;;5010370;28;20504;-55
2022/12/15 01:21:54;;;;;;;40.65;22.38;;;;;;;;;;4990521;28;20095;-53
2022/12/15 01:24:22;;;;;;;37.25;21.52;;;;;;;;;;4990425;28;20051;-51
2022/12/15 01:26:49;;;;;;;40.20;22.55;;;;;;;;;;4990361;28;20077;-56
2022/12/15 01:29:17;;;;;;;38.00;22.20;;;;;;;;;;4990437;28;20095;-50
2022/12/15 01:31:44;;;;;;;39.03;21.80;;;;;;;;;;4988936;28;20385;-56
2022/12/15 01:34:17;;;;;;;39.42;21.98;;;;;;;;;;4988957;28;20104;-56
2022/12/15 01:36:44;;;;;;;37.50;21.95;;;;;;;;;;4990293;28;20446;-54
2022/12/15 01:39:12;;;;;;;39.17;22.10;;;;;;;;;;4990499;28;20042;-52
2022/12/15 01:41:39;;;;;;;39.70;22.10;;;;;;;;;;4990289;28;20078;-55
2022/12/15 01:44:21;;;;;;;40.58;23.08;;;;;;;;;;4989153;28;20070;-54
2022/12/15 01:46:51;;;;;;;35.35;21.50;;;;;;;;;;4990123;28;20049;-56
2022/12/15 01:49:24;;;;;;;40.70;22.95;;;;;;;;;;4990113;28;20038;-53
2022/12/15 01:51:55;;;;;;;37.92;21.77;;;;;;;;;;4988918;28;20508;-55
2022/12/15 01:54:37;;;;;;;37.75;22.00;;;;;;;;;;4990096;28;20073;-54
2022/12/15 01:57:17;;;;;;;43.08;22.08;;;;;;;;;;4989973;28;20054;-54
2022/12/15 01:59:49;;;;;;;36.85;21.10;;;;;;;;;;4990210;28;20042;-54
2022/12/15 02:02:19;;;;;;;39.08;21.45;;;;;;;;;;4990161;28;20377;-53
2022/12/15 02:04:48;;;;;;;37.85;20.95;;;;;;;;;;4990082;28;20046;-54
2022/12/15 02:07:16;;;;;;;36.67;20.95;;;;;;;;;;4989891;28;20561;-54
2022/12/15 02:09:44;;;;;;;38.70;21.52;;;;;;;;;;4989833;28;20115;-56
2022/12/15 02:12:32;;;;;;;34.83;20.92;;;;;;;;;;4989655;28;20075;-56
2022/12/15 02:15:18;;;;;;;39.95;19.95;;;;;;;;;;4992605;28;20115;-54
2022/12/15 02:17:46;;;;;;;37.75;20.65;;;;;;;;;;4989831;28;20078;-52
2022/12/15 02:20:25;;;;;;;34.40;20.00;;;;;;;;;;4989746;28;20085;-53
2022/12/15 02:23:11;;;;;;;37.63;20.88;;;;;;;;;;4989828;28;20046;-54
2022/12/15 02:25:45;;;;;;;36.53;20.45;;;;;;;;;;4992292;28;20047;-55
2022/12/15 02:28:25;;;;;;;35.17;20.25;;;;;;;;;;4992944;28;20046;-56
2022/12/15 02:33:52;;;;;;;33.85;19.45;;;;;;;;;;4992990;28;20042;-56
2022/12/15 02:36:22;;;;;;;36.38;19.77;;;;;;;;;;4992860;28;20043;-56
2022/12/15 02:38:50;;;;;;;36.60;19.98;;;;;;;;;;4991584;28;20518;-55
2022/12/15 02:41:32;;;;;;;34.50;20.00;;;;;;;;;;4993142;28;20442;-55
2022/12/15 02:44:01;;;;;;;33.70;20.50;;;;;;;;;;4992735;28;20495;-55
2022/12/15 02:46:35;;;;;;;32.20;18.75;;;;;;;;;;4992641;28;20043;-54
2022/12/15 02:49:02;;;;;;;35.22;19.67;;;;;;;;;;4992586;28;20125;-53
2022/12/15 02:51:41;;;;;;;32.67;19.38;;;;;;;;;;4992760;28;20436;-54
2022/12/15 02:54:14;;;;;;;32.00;19.60;;;;;;;;;;4992545;28;20117;-56
2022/12/15 02:57:11;;;;;;;30.77;19.30;;;;;;;;;;4992297;28;20054;-56
2022/12/15 02:59:45;;;;;;;35.65;20.38;;;;;;;;;;4996433;28;20054;-52
2022/12/15 03:02:13;;;;;;;35.65;19.98;;;;;;;;;;4992431;28;20042;-55
2022/12/15 03:04:42;;;;;;;31.15;18.65;;;;;;;;;;4992546;28;20042;-55
2022/12/15 03:07:10;;;;;;;30.38;18.77;;;;;;;;;;4992616;28;20544;-55
2022/12/15 03:09:37;;;;;;;33.65;18.73;;;;;;;;;;4992521;28;20046;-54
2022/12/15 03:12:05;;;;;;;34.13;19.08;;;;;;;;;;4992321;28;20145;-54
2022/12/15 03:14:33;;;;;;;31.55;18.33;;;;;;;;;;4992281;28;20545;-52
2022/12/15 03:17:01;;;;;;;30.48;18.80;;;;;;;;;;4992264;28;20058;-52
2022/12/15 03:19:28;;;;;;;27.98;17.67;;;;;;;;;;4992235;28;20092;-54
2022/12/15 03:21:56;;;;;;;29.92;18.20;;;;;;;;;;4992192;28;20045;-55
2022/12/15 03:24:23;;;;;;;31.17;18.15;;;;;;;;;;4992138;28;20034;-52
2022/12/15 03:26:52;;;;;;;29.98;18.77;;;;;;;;;;4991981;28;20054;-54
2022/12/15 03:29:19;;;;;;;28.23;18.05;;;;;;;;;;4991874;28;20099;-54
2022/12/15 03:31:47;;;;;;;29.70;17.50;;;;;;;;;;4991819;28;20042;-55
2022/12/15 03:34:16;;;;;;;30.88;18.23;;;;;;;;;;4991964;28;20077;-55
2022/12/15 03:36:44;;;;;;;33.28;19.67;;;;;;;;;;4991771;28;20477;-55
2022/12/15 03:39:11;;;;;;;29.48;18.52;;;;;;;;;;4991852;28;20046;-55
2022/12/15 03:41:40;;;;;;;28.83;17.92;;;;;;;;;;4991857;28;20046;-55
2022/12/15 03:44:08;;;;;;;33.83;19.70;;;;;;;;;;4992088;28;20462;-55
2022/12/15 03:46:35;;;;;;;30.67;18.38;;;;;;;;;;4991837;28;20043;-54
2022/12/15 03:49:03;;;;;;;28.85;17.85;;;;;;;;;;4991928;28;20042;-55
2022/12/15 03:51:30;;;;;;;34.58;20.63;;;;;;;;;;4991735;28;20446;-56
2022/12/15 03:53:57;;;;;;;29.58;17.83;;;;;;;;;;4991711;28;20046;-55
2022/12/15 03:56:25;;;;;;;30.17;17.65;;;;;;;;;;4991598;28;20034;-54
2022/12/15 03:58:52;;;;;;;31.88;17.67;;;;;;;;;;4991575;28;20496;-54
2022/12/15 04:01:20;;;;;;;26.17;16.95;;;;;;;;;;4991464;28;20442;-56
2022/12/15 04:03:47;;;;;;;28.08;18.20;;;;;;;;;;4990204;28;20043;-53
2022/12/15 04:06:15;;;;;;;27.60;17.48;;;;;;;;;;4991558;28;20043;-55
2022/12/15 04:08:42;;;;;;;28.98;17.67;;;;;;;;;;4991723;28;20163;-56
2022/12/15 04:11:10;;;;;;;28.55;17.27;;;;;;;;;;4991821;28;20126;-55
2022/12/15 04:13:37;;;;;;;27.52;16.35;;;;;;;;;;4991353;28;20047;-52
2022/12/15 04:16:05;;;;;;;28.02;16.80;;;;;;;;;;4991470;28;20065;-55
2022/12/15 04:18:32;;;;;;;27.05;17.05;;;;;;;;;;4991369;28;20074;-54
2022/12/15 04:21:00;;;;;;;29.15;17.90;;;;;;;;;;4991370;28;20084;-54
2022/12/15 04:23:27;;;;;;;29.20;17.38;;;;;;;;;;4991295;28;20042;-52
2022/12/15 05:32:36;;;;;;;31.67;19.13;;;;;;;;;;4990526;28;20369;-58
2022/12/15 05:35:04;;;;;;;31.85;18.90;;;;;;;;;;4989107;28;20099;-58
2022/12/15 05:37:31;;;;;;;30.55;18.15;;;;;;;;;;4990287;28;20510;-58
2022/12/15 05:39:59;;;;;;;33.33;19.65;;;;;;;;;;4989021;28;20389;-57
2022/12/15 05:42:26;;;;;;;32.72;18.60;;;;;;;;;;4989575;28;20480;-57
2022/12/15 05:44:54;;;;;;;31.77;18.38;;;;;;;;;;4989961;28;20121;-58
2022/12/15 05:47:21;;;;;;;33.75;19.00;;;;;;;;;;4990131;28;20046;-57
2022/12/15 05:49:49;;;;;;;31.65;18.98;;;;;;;;;;4992018;28;20042;-58
2022/12/15 05:52:17;;;;;;;37.83;21.08;;;;;;;;;;5004134;28;20099;-57
2022/12/15 05:54:44;;;;;;;33.22;19.35;;;;;;;;;;5009180;28;20124;-57
2022/12/15 05:57:12;;;;;;;32.25;20.10;;;;;;;;;;5008357;28;20046;-57
2022/12/15 05:59:39;;;;;;;32.58;19.70;;;;;;;;;;5010874;28;20038;-57
2022/12/15 06:02:07;;;;;;;35.28;19.33;;;;;;;;;;5012994;28;20042;-57
2022/12/15 06:04:34;;;;;;;32.78;18.10;;;;;;;;;;5013220;28;20049;-57
2022/12/15 06:07:01;;;;;;;31.52;18.75;;;;;;;;;;5013064;28;20048;-57
2022/12/15 06:09:29;;;;;;;31.40;18.13;;;;;;;;;;5012922;28;20117;-57
2022/12/15 06:11:56;;;;;;;28.92;17.75;;;;;;;;;;5012683;28;20084;-57
2022/12/15 06:14:24;;;;;;;32.15;17.52;;;;;;;;;;5012734;28;20045;-57
2022/12/15 06:16:52;;;;;;;32.88;19.15;;;;;;;;;;5012638;28;20081;-57
2022/12/15 06:19:20;;;;;;;34.88;19.02;;;;;;;;;;5012659;28;20487;-58
2022/12/15 06:21:48;;;;;;;36.30;19.42;;;;;;;;;;5012590;28;20087;-58
2022/12/15 06:24:16;;;;;;;37.00;19.58;;;;;;;;;;5012555;28;20042;-57
2022/12/15 06:26:43;;;;;;;36.33;19.83;;;;;;;;;;5012734;28;20045;-56
2022/12/15 06:29:12;;;;;;;37.92;19.95;;;;;;;;;;5012506;28;20074;-57
2022/12/15 06:31:40;;;;;;;37.80;21.15;;;;;;;;;;5011144;28;20046;-55
2022/12/15 06:34:10;;;;;;;40.15;20.73;;;;;;;;;;5012417;28;20042;-57
2022/12/15 06:36:38;;;;;;;40.97;20.63;;;;;;;;;;5012455;28;20046;-57
2022/12/15 06:39:09;;;;;;;40.50;20.80;;;;;;;;;;5012477;28;20083;-57
2022/12/15 06:41:37;;;;;;;41.20;21.23;;;;;;;;;;5012348;28;20042;-57
2022/12/15 06:44:05;;;;;;;44.50;22.10;;;;;;;;;;5012528;28;20112;-57
2022/12/15 06:46:33;;;;;;;39.53;20.88;;;;;;;;;;5007935;28;20038;-57
2022/12/15 06:49:02;;;;;;;41.03;21.35;;;;;;;;;;4992694;28;20035;-56
2022/12/15 06:51:29;;;;;;;44.63;22.88;;;;;;;;;;4992467;28;20051;-56
2022/12/15 06:53:56;;;;;;;44.75;22.08;;;;;;;;;;4992808;28;20479;-58
2022/12/15 06:56:27;;;;;;;46.63;22.92;;;;;;;;;;4992827;28;20565;-58
2022/12/15 06:59:00;;;;;;;46.90;24.02;;;;;;;;;;4992745;28;20551;-58
2022/12/15 07:01:28;;;;;;;46.50;23.08;;;;;;;;;;4992609;28;20042;-58
2022/12/15 07:03:58;;;;;;;47.70;22.83;;;;;;;;;;4992507;28;20046;-58
2022/12/15 07:06:27;;;;;;;48.17;23.27;;;;;;;;;;4992437;28;20125;-58
2022/12/15 07:08:55;;;;;;;43.45;23.63;;;;;;;;;;4992305;28;20499;-58
2022/12/15 07:11:23;;;;;;;47.60;23.38;;;;;;;;;;4991758;28;20103;-58
2022/12/15 07:13:51;;;;;;;45.20;21.58;;;;;;;;;;4992209;28;20046;-57
2022/12/15 07:16:20;;;;;;;41.55;21.15;;;;;;;;;;4991198;28;20065;-57
2022/12/15 07:18:48;;;;;;;38.42;19.65;;;;;;;;;;4991995;28;20050;-57
2022/12/15 07:21:16;;;;;;;38.95;19.02;;;;;;;;;;4991874;28;20042;-58
2022/12/15 07:23:43;;;;;;;42.75;20.60;;;;;;;;;;4991938;28;20454;-58
2022/12/15 07:26:28;;;;;;;43.70;19.98;;;;;;;;;;4990836;28;20054;-58
2022/12/15 07:28:55;;;;;;;45.13;20.50;;;;;;;;;;4992128;28;20050;-58
2022/12/15 07:31:23;;;;;;;43.72;22.42;;;;;;;;;;4992096;28;20050;-58
2022/12/15 07:33:51;;;;;;;45.65;22.20;;;;;;;;;;4990729;28;20076;-58
2022/12/15 07:36:19;;;;;;;45.80;21.65;;;;;;;;;;4992101;28;20042;-58
2022/12/15 07:38:46;;;;;;;49.33;23.13;;;;;;;;;;4992035;28;20396;-58
2022/12/15 07:41:17;;;;;;;43.95;20.75;;;;;;;;;;4992027;28;20038;-58
2022/12/15 07:43:46;;;;;;;45.13;22.92;;;;;;;;;;4992216;28;20039;-57
2022/12/15 07:46:14;;;;;;;47.50;22.42;;;;;;;;;;4991917;28;20047;-57
2022/12/15 07:48:41;;;;;;;53.97;24.70;;;;;;;;;;4991938;28;20477;-58
2022/12/15 07:51:09;;;;;;;57.58;25.95;;;;;;;;;;4992027;28;20050;-57
2022/12/15 07:53:45;;;;;;;62.80;28.13;;;;;;;;;;4991648;28;20403;-58
2022/12/15 07:56:14;;;;;;;81.93;30.65;;;;;;;;;;4991827;28;20046;-57
2022/12/15 07:58:42;;;;;;;76.80;32.10;;;;;;;;;;4991747;28;20103;-58
2022/12/15 08:01:11;;;;;;;108.22;35.28;;;;;;;;;;4991796;28;20112;-58
2022/12/15 08:03:39;;;;;;;79.40;31.40;;;;;;;;;;4991583;28;20143;-57
2022/12/15 08:06:11;;;;;;;99.68;36.80;;;;;;;;;;4991509;28;20484;-57
2022/12/15 08:08:39;;;;;;;75.75;31.98;;;;;;;;;;4991754;28;20111;-58
2022/12/15 08:11:08;;;;;;;70.53;29.52;;;;;;;;;;4991533;28;20043;-58
2022/12/15 08:13:36;;;;;;;61.00;27.35;;;;;;;;;;4991419;28;20480;-58
2022/12/15 08:16:24;;;;;;;58.33;25.63;;;;;;;;;;4991486;28;20043;-58
2022/12/15 08:18:51;;;;;;;63.67;25.85;;;;;;;;;;4991252;28;20096;-58
2022/12/15 08:21:19;;;;;;;56.17;26.15;;;;;;;;;;4990867;28;20520;-57
2022/12/15 08:23:46;;;;;;;68.13;26.67;;;;;;;;;;4990750;28;20039;-58
2022/12/15 08:26:16;;;;;;;65.80;26.02;;;;;;;;;;4991085;28;20054;-58
2022/12/15 08:28:44;;;;;;;58.60;25.50;;;;;;;;;;4991244;28;20042;-57
2022/12/15 08:31:14;;;;;;;59.95;24.92;;;;;;;;;;4991211;28;20416;-56
2022/12/15 08:33:42;;;;;;;53.55;24.05;;;;;;;;;;4991202;28;20052;-58
2022/12/15 08:36:10;;;;;;;60.45;25.10;;;;;;;;;;4991166;28;20034;-57
2022/12/15 08:38:38;;;;;;;61.17;26.85;;;;;;;;;;4991173;28;20104;-58
2022/12/15 08:41:10;;;;;;;59.35;24.52;;;;;;;;;;4990988;28;20050;-58
2022/12/15 08:43:38;;;;;;;60.40;25.77;;;;;;;;;;4991084;28;20050;-58
2022/12/15 08:46:13;;;;;;;;;;;;;;;;;;4991520;28;20038;-58
2022/12/15 08:48:41;;;;;;;53.28;23.80;;;;;;;;;;4990125;28;19921;-58
2022/12/15 08:51:09;;;;;;;63.25;25.35;;;;;;;;;;4991131;28;20046;-58
2022/12/15 08:53:37;;;;;;;62.65;25.40;;;;;;;;;;4989511;28;20046;-58
2022/12/15 08:56:09;;;;;;;57.83;23.50;;;;;;;;;;4990672;28;20057;-58
2022/12/15 08:58:36;;;;;;;61.80;26.58;;;;;;;;;;4990782;28;20407;-58
2022/12/15 09:01:05;;;;;;;60.95;25.98;;;;;;;;;;4990681;28;20096;-58
2022/12/15 09:03:33;;;;;;;60.25;25.30;;;;;;;;;;4989387;28;20458;-57
2022/12/15 09:06:03;;;;;;;56.90;24.40;;;;;;;;;;4990542;28;20091;-57
2022/12/15 09:08:30;;;;;;;54.30;23.38;;;;;;;;;;4990631;28;20050;-58
2022/12/15 09:10:58;;;;;;;53.35;23.48;;;;;;;;;;4990594;28;20038;-57
2022/12/15 09:13:26;;;;;;;54.20;23.25;;;;;;;;;;4990819;28;20054;-58
2022/12/15 09:16:12;;;;;;;48.25;21.83;;;;;;;;;;4990752;28;20442;-58
2022/12/15 09:18:59;;;;;;;45.22;21.48;;;;;;;;;;4990725;28;20069;-58
2022/12/15 09:21:27;;;;;;;44.83;21.05;;;;;;;;;;4990343;28;20046;-58
2022/12/15 09:23:59;;;;;;;43.35;21.08;;;;;;;;;;4990336;28;20030;-57
2022/12/15 09:26:27;;;;;;;41.30;20.50;;;;;;;;;;4990370;28;20129;-57
2022/12/15 09:28:55;;;;;;;40.47;18.55;;;;;;;;;;4990398;28;20047;-58
2022/12/15 09:31:22;;;;;;;38.53;18.45;;;;;;;;;;4990337;28;20095;-57
2022/12/15 09:33:51;;;;;;;39.90;20.67;;;;;;;;;;4991989;28;20042;-57
2022/12/15 09:36:19;;;;;;;37.22;18.23;;;;;;;;;;4993743;28;20050;-56
2022/12/15 09:38:46;;;;;;;42.47;20.35;;;;;;;;;;4993734;28;20049;-58
2022/12/15 09:41:14;;;;;;;40.33;19.98;;;;;;;;;;4993657;28;20038;-58
2022/12/15 09:43:44;;;;;;;41.95;21.10;;;;;;;;;;4994138;28;20038;-58
2022/12/15 09:46:37;;;;;;;38.67;19.20;;;;;;;;;;4993758;28;20479;-59
2022/12/15 09:49:13;;;;;;;36.95;17.40;;;;;;;;;;5011863;28;20072;-58
2022/12/15 09:51:44;;;;;;;34.97;17.77;;;;;;;;;;4993350;28;20062;-58
2022/12/15 09:54:12;;;;;;;40.05;18.65;;;;;;;;;;4993429;28;20042;-58
2022/12/15 09:56:44;;;;;;;32.35;17.85;;;;;;;;;;4993391;28;20034;-57
2022/12/15 09:59:39;;;;;;;38.60;19.42;;;;;;;;;;4992493;28;20095;-59
2022/12/15 10:02:06;;;;;;;33.97;17.15;;;;;;;;;;4993304;28;20046;-58
2022/12/15 10:04:37;;;;;;;37.45;19.42;;;;;;;;;;4993451;28;20042;-58
2022/12/15 10:07:10;;;;;;;34.15;17.30;;;;;;;;;;4993316;28;20042;-57
2022/12/15 10:09:38;;;;;;;33.42;17.98;;;;;;;;;;4993294;28;20050;-58
2022/12/15 10:12:18;;;;;;;37.78;17.95;;;;;;;;;;4992071;28;20043;-58
2022/12/15 10:14:45;;;;;;;39.38;19.65;;;;;;;;;;4993079;28;20043;-58
2022/12/15 10:17:48;;;;;;;43.17;20.75;;;;;;;;;;4993023;28;20480;-59
2022/12/15 10:20:17;;;;;;;37.88;17.23;;;;;;;;;;5003498;28;20046;-58
2022/12/15 10:22:45;;;;;;;38.42;18.92;;;;;;;;;;4993118;28;20496;-58
2022/12/15 10:25:20;;;;;;;37.25;18.88;;;;;;;;;;4993049;28;20399;-59
2022/12/15 10:28:05;;;;;;;40.13;18.58;;;;;;;;;;4993048;28;20127;-57
2022/12/15 10:30:34;;;;;;;33.97;16.88;;;;;;;;;;4991894;28;20089;-57
2022/12/15 10:33:14;;;;;;;43.95;18.67;;;;;;;;;;4991613;28;20042;-56
2022/12/15 10:35:42;;;;;;;41.10;18.73;;;;;;;;;;4993224;28;20403;-56
2022/12/15 10:38:21;;;;;;;44.60;20.13;;;;;;;;;;4992874;28;20121;-57
2022/12/15 10:40:51;;;;;;;48.50;21.52;;;;;;;;;;4992803;28;20117;-55
2022/12/15 10:43:44;;;;;;;43.08;18.25;;;;;;;;;;4991192;28;20053;-57
2022/12/15 10:46:13;;;;;;;46.10;21.08;;;;;;;;;;4992565;28;20059;-56
2022/12/15 10:48:45;;;;;;;42.13;18.13;;;;;;;;;;4992682;28;20034;-56
2022/12/15 10:51:31;;;;;;;42.13;18.50;;;;;;;;;;4991613;28;20050;-57
2022/12/15 10:54:05;;;;;;;45.53;19.38;;;;;;;;;;4992547;28;20112;-57
2022/12/15 10:56:33;;;;;;;40.22;20.10;;;;;;;;;;4992701;28;20070;-57
2022/12/15 10:59:21;;;;;;;40.72;19.83;;;;;;;;;;4992561;28;20126;-57
2022/12/15 11:01:49;;;;;;;38.17;18.80;;;;;;;;;;4992460;28;20047;-57
2022/12/15 11:04:28;;;;;;;39.33;19.75;;;;;;;;;;4992748;28;20049;-58
2022/12/15 11:06:56;;;;;;;41.13;19.42;;;;;;;;;;4992206;28;20046;-57
2022/12/15 11:09:27;;;;;;;44.03;19.48;;;;;;;;;;4992236;28;20046;-57
2022/12/15 11:14:45;;;;;;;38.45;17.92;;;;;;;;;;4991391;28;20042;-57
2022/12/15 11:17:38;;;;;;;34.15;17.83;;;;;;;;;;4992137;28;20046;-58
2022/12/15 11:20:12;;;;;;;38.78;18.80;;;;;;;;;;4992494;28;20461;-57
2022/12/15 11:22:43;;;;;;;37.72;18.73;;;;;;;;;;4992303;28;20135;-58
2022/12/15 11:25:31;;;;;;;40.58;19.45;;;;;;;;;;4992330;28;20452;-56
2022/12/15 11:28:01;;;;;;;39.22;19.10;;;;;;;;;;4991925;28;20055;-57
2022/12/15 11:30:34;;;;;;;39.35;18.75;;;;;;;;;;4992062;28;20046;-56
2022/12/15 11:33:02;;;;;;;36.80;18.98;;;;;;;;;;4990713;28;20573;-57
2022/12/15 11:35:33;;;;;;;37.13;18.80;;;;;;;;;;4991877;28;20133;-57
2022/12/15 11:38:19;;;;;;;35.90;17.48;;;;;;;;;;4990708;28;20457;-56
2022/12/15 11:40:47;;;;;;;32.53;16.50;;;;;;;;;;4991997;28;20404;-58
2022/12/15 11:43:19;;;;;;;40.20;19.17;;;;;;;;;;4991765;28;20111;-57
2022/12/15 11:46:05;;;;;;;33.88;18.55;;;;;;;;;;4991735;28;20492;-57
2022/12/15 11:48:32;;;;;;;;;;;;;;;;;;4992299;28;20038;-57
2022/12/15 11:51:09;;;;;;;36.67;17.95;;;;;;;;;;4992063;28;20003;-57
2022/12/15 11:53:55;;;;;;;34.95;18.15;;;;;;;;;;4991628;28;20128;-56
2022/12/15 11:56:34;;;;;;;32.00;17.17;;;;;;;;;;4991742;28;20129;-56
2022/12/15 11:59:11;;;;;;;35.00;18.75;;;;;;;;;;4991689;28;20061;-57
2022/12/15 12:01:39;;;;;;;33.60;18.77;;;;;;;;;;4990375;28;20061;-57
2022/12/15 12:04:32;;;;;;;33.97;18.03;;;;;;;;;;4991611;28;20091;-56
2022/12/15 12:07:08;;;;;;;38.45;19.65;;;;;;;;;;4991451;28;20126;-57
2022/12/15 12:09:36;;;;;;;37.05;19.38;;;;;;;;;;4991606;28;20042;-56
2022/12/15 12:12:29;;;;;;;37.30;18.75;;;;;;;;;;4991484;28;20051;-56
2022/12/15 12:15:16;;;;;;;33.85;18.45;;;;;;;;;;4991349;28;20054;-58
2022/12/15 12:17:50;;;;;;;28.38;16.73;;;;;;;;;;4997540;28;20055;-58
2022/12/15 12:20:18;;;;;;;28.50;16.42;;;;;;;;;;4991455;28;20042;-57
2022/12/15 12:22:54;;;;;;;33.17;16.90;;;;;;;;;;4991545;28;20088;-58
2022/12/15 12:25:24;;;;;;;27.92;16.27;;;;;;;;;;4991436;28;20085;-58
2022/12/15 12:27:59;;;;;;;28.08;16.90;;;;;;;;;;4991276;28;20111;-58
2022/12/15 12:30:30;;;;;;;30.55;17.83;;;;;;;;;;4991297;28;20038;-58
2022/12/15 12:33:09;;;;;;;31.95;18.38;;;;;;;;;;4991394;28;20052;-58
2022/12/15 12:35:48;;;;;;;28.25;16.67;;;;;;;;;;4991066;28;20039;-57
2022/12/15 12:38:19;;;;;;;30.20;16.63;;;;;;;;;;4991113;28;20129;-57
2022/12/15 12:40:58;;;;;;;29.83;17.15;;;;;;;;;;4990999;28;20038;-57
2022/12/15 12:43:43;;;;;;;30.23;17.13;;;;;;;;;;4991297;28;20050;-57
2022/12/15 12:46:10;;;;;;;28.38;16.02;;;;;;;;;;4990946;28;20078;-57
2022/12/15 12:48:54;;;;;;;27.60;16.02;;;;;;;;;;4991011;28;20066;-58
2022/12/15 12:51:33;;;;;;;28.90;16.20;;;;;;;;;;4989979;28;20038;-57
2022/12/15 12:54:01;;;;;;;28.73;17.00;;;;;;;;;;4991048;28;20081;-58
2022/12/15 12:56:31;;;;;;;27.10;16.60;;;;;;;;;;4991023;28;20070;-58
2022/12/15 12:58:59;;;;;;;29.33;16.33;;;;;;;;;;4991020;28;20408;-58
2022/12/15 13:01:29;;;;;;;28.10;17.30;;;;;;;;;;4990709;28;20496;-58
2022/12/15 13:04:06;;;;;;;26.58;16.65;;;;;;;;;;4990606;28;20042;-56
2022/12/15 13:06:34;;;;;;;23.50;14.98;;;;;;;;;;4990722;28;20120;-58
2022/12/15 13:09:16;;;;;;;26.75;16.27;;;;;;;;;;4990641;28;20433;-58
2022/12/15 13:11:51;;;;;;;25.48;15.40;;;;;;;;;;4990743;28;20046;-58
2022/12/15 13:14:21;;;;;;;22.65;14.32;;;;;;;;;;4990776;28;20121;-58
2022/12/15 13:17:14;;;;;;;26.38;16.27;;;;;;;;;;4990493;28;20065;-58
2022/12/15 13:19:56;;;;;;;25.70;16.35;;;;;;;;;;4990593;28;20047;-58
2022/12/15 13:22:30;;;;;;;22.13;14.88;;;;;;;;;;4990561;28;20042;-58
2022/12/15 13:24:57;;;;;;;23.92;15.70;;;;;;;;;;4990336;28;20368;-58
2022/12/15 13:27:34;;;;;;;21.88;14.35;;;;;;;;;;4990601;28;20088;-58
2022/12/15 13:30:07;;;;;;;22.77;14.82;;;;;;;;;;4990381;28;20046;-58
2022/12/15 13:32:36;;;;;;;23.13;15.82;;;;;;;;;;4990383;28;20045;-57
2022/12/15 13:35:13;;;;;;;25.00;16.65;;;;;;;;;;4990148;28;20507;-57
2022/12/15 13:37:51;;;;;;;25.17;16.33;;;;;;;;;;4990464;28;20047;-58
2022/12/15 13:40:22;;;;;;;23.38;15.20;;;;;;;;;;4990630;28;20055;-58
2022/12/15 13:42:57;;;;;;;21.83;14.85;;;;;;;;;;4990212;28;20039;-58
2022/12/15 13:45:35;;;;;;;24.95;15.30;;;;;;;;;;4990353;28;20046;-58
2022/12/15 13:48:12;;;;;;;25.75;16.13;;;;;;;;;;4990158;28;20103;-57
2022/12/15 13:51:08;;;;;;;22.88;15.82;;;;;;;;;;4990304;28;20047;-58
2022/12/15 13:53:39;;;;;;;24.73;15.70;;;;;;;;;;4998116;28;20111;-58
2022/12/15 13:56:27;;;;;;;23.95;14.95;;;;;;;;;;4989982;28;20046;-58
2022/12/15 13:59:02;;;;;;;26.98;16.38;;;;;;;;;;4996130;28;20058;-56
2022/12/15 14:01:31;;;;;;;27.30;17.70;;;;;;;;;;4989890;28;20046;-58
2022/12/15 14:04:20;;;;;;;30.17;18.83;;;;;;;;;;4989858;28;20038;-58
2022/12/15 14:06:50;;;;;;;29.50;17.95;;;;;;;;;;4989963;28;20064;-59
2022/12/15 14:09:23;;;;;;;27.50;17.52;;;;;;;;;;4990092;28;20043;-57
2022/12/15 14:11:51;;;;;;;26.92;15.95;;;;;;;;;;4990023;28;20038;-58
2022/12/15 14:14:25;;;;;;;26.33;16.83;;;;;;;;;;4990117;28;20047;-58
2022/12/15 14:16:54;;;;;;;29.83;18.45;;;;;;;;;;4990243;28;20053;-58
2022/12/15 14:19:22;;;;;;;28.25;19.42;;;;;;;;;;4989983;28;20041;-58
2022/12/15 14:21:56;;;;;;;27.70;17.25;;;;;;;;;;4993070;28;20049;-58
2022/12/15 14:24:25;;;;;;;27.83;17.77;;;;;;;;;;4993099;28;20042;-58
2022/12/15 14:27:06;;;;;;;26.90;17.13;;;;;;;;;;4992823;28;20070;-58
2022/12/15 14:29:33;;;;;;;26.63;17.60;;;;;;;;;;4992707;28;20392;-58
2022/12/15 14:32:00;;;;;;;29.90;18.88;;;;;;;;;;4993147;28;20121;-58
2022/12/15 14:34:40;;;;;;;30.10;18.88;;;;;;;;;;4987731;28;20881;-59
2022/12/15 14:37:10;;;;;;;36.85;22.02;;;;;;;;;;4982486;28;20146;-58
2022/12/15 14:39:43;;;;;;;34.30;20.88;;;;;;;;;;4994132;28;20030;-58
2022/12/15 14:42:15;;;;;;;33.92;20.42;;;;;;;;;;4984089;28;20042;-58
2022/12/15 14:44:45;;;;;;;56.65;29.70;;;;;;;;;;4991774;28;20043;-58
2022/12/15 14:47:23;;;;;;;34.10;19.10;;;;;;;;;;4992873;28;20038;-57
2022/12/15 14:49:51;;;;;;;32.92;19.15;;;;;;;;;;4992764;28;20134;-58
2022/12/15 14:52:22;;;;;;;47.15;26.15;;;;;;;;;;4992905;28;20042;-58
2022/12/15 14:54:51;;;;;;;50.90;27.67;;;;;;;;;;4992489;28;20066;-57
2022/12/15 14:57:27;;;;;;;35.95;21.27;;;;;;;;;;4992491;28;20046;-58
2022/12/15 14:59:55;;;;;;;36.00;20.77;;;;;;;;;;4992093;28;20129;-59
2022/12/15 15:02:27;;;;;;;43.20;24.80;;;;;;;;;;4992712;28;20567;-58
2022/12/15 15:04:58;;;;;;;32.70;19.30;;;;;;;;;;4992323;28;20675;-58
2022/12/15 15:07:29;;;;;;;37.10;22.13;;;;;;;;;;4992356;28;20074;-58
2022/12/15 15:09:58;;;;;;;41.05;23.48;;;;;;;;;;4992724;28;20062;-58
2022/12/15 15:12:46;;;;;;;39.95;22.23;;;;;;;;;;4992502;28;20133;-58
2022/12/15 15:15:17;;;;;;;43.95;24.65;;;;;;;;;;4991938;28;20045;-58
2022/12/15 15:17:48;;;;;;;48.72;28.05;;;;;;;;;;4992600;28;20051;-59
2022/12/15 15:20:16;;;;;;;36.97;20.83;;;;;;;;;;5036372;28;20390;-58
2022/12/15 15:22:45;;;;;;;36.90;22.02;;;;;;;;;;5094464;28;20626;-58
2022/12/15 15:25:26;;;;;;;36.25;20.63;;;;;;;;;;5079557;28;20050;-59
2022/12/15 15:28:11;;;;;;;34.92;21.35;;;;;;;;;;4986157;28;20082;-58
2022/12/15 15:30:46;;;;;;;48.70;28.88;;;;;;;;;;4993695;28;20038;-59
2022/12/15 15:33:16;;;;;;;45.58;26.25;;;;;;;;;;4991998;28;20046;-58
2022/12/15 15:35:44;;;;;;;63.00;35.20;;;;;;;;;;4991723;28;20496;-58
2022/12/15 15:38:16;;;;;;;39.28;21.63;;;;;;;;;;4992265;28;20106;-58
2022/12/15 15:40:51;;;;;;;49.03;26.23;;;;;;;;;;4992001;28;20092;-57
2022/12/15 15:43:18;;;;;;;45.83;27.42;;;;;;;;;;4991917;28;20053;-58
2022/12/15 15:45:47;;;;;;;47.55;27.25;;;;;;;;;;4991444;28;20104;-58
2022/12/15 15:48:16;;;;;;;48.78;26.77;;;;;;;;;;4995261;28;20552;-58
2022/12/15 15:50:46;;;;;;;50.90;27.75;;;;;;;;;;4996546;28;20045;-58
2022/12/15 15:53:19;;;;;;;45.85;25.15;;;;;;;;;;4999902;28;20076;-58
2022/12/15 15:55:49;;;;;;;36.88;21.67;;;;;;;;;;4991522;28;20050;-58
2022/12/15 15:58:17;;;;;;;40.35;21.10;;;;;;;;;;5043391;28;20032;-59
2022/12/15 16:00:44;;;;;;;37.60;23.08;;;;;;;;;;5094127;28;20083;-58
2022/12/15 16:03:11;;;;;;;38.97;22.13;;;;;;;;;;5093969;28;20040;-58
2022/12/15 16:05:40;;;;;;;35.75;20.13;;;;;;;;;;5093633;28;20408;-58
2022/12/15 16:08:12;;;;;;;35.08;20.92;;;;;;;;;;5093904;28;20051;-59
2022/12/15 16:10:41;;;;;;;35.20;21.35;;;;;;;;;;5093845;28;20055;-60
2022/12/15 16:13:09;;;;;;;35.88;20.33;;;;;;;;;;5093955;28;20086;-60
2022/12/15 16:15:36;;;;;;;48.25;32.60;;;;;;;;;;5093638;28;20131;-63
2022/12/15 16:18:04;;;;;;;47.60;31.15;;;;;;;;;;5018094;28;20069;-67
2022/12/15 16:20:33;;;;;;;49.47;30.77;;;;;;;;;;4990698;28;20050;-67
2022/12/15 16:23:02;;;;;;;38.45;23.15;;;;;;;;;;4989767;28;20484;-67
2022/12/15 16:25:32;;;;;;;36.15;20.65;;;;;;;;;;4985309;28;20122;-67
2022/12/15 16:28:14;;;;;;;38.78;21.20;;;;;;;;;;4984913;28;20057;-68
2022/12/15 16:30:42;;;;;;;41.40;25.13;;;;;;;;;;4990931;28;20038;-67
2022/12/15 16:33:09;;;;;;;66.93;44.15;;;;;;;;;;4990853;28;20467;-68
2022/12/15 16:35:38;;;;;;;35.70;22.45;;;;;;;;;;4976875;28;20209;-69
2022/12/15 16:38:06;;;;;;;36.42;22.42;;;;;;;;;;4990342;28;20042;-72
2022/12/15 16:40:36;;;;;;;35.53;21.13;;;;;;;;;;4990613;28;20480;-72
2022/12/15 16:43:15;;;;;;;37.97;22.42;;;;;;;;;;4988428;28;20042;-69
2022/12/15 16:45:47;;;;;;;38.95;21.85;;;;;;;;;;5062227;28;20087;-71
2022/12/15 16:48:15;;;;;;;40.03;22.10;;;;;;;;;;4990523;28;20418;-71
2022/12/15 16:50:44;;;;;;;36.83;21.02;;;;;;;;;;4986710;28;20053;-71
2022/12/15 16:53:32;;;;;;;39.50;21.42;;;;;;;;;;4978687;28;20077;-70
2022/12/15 16:56:00;;;;;;;39.33;21.30;;;;;;;;;;4988845;28;20064;-72
2022/12/15 16:58:29;;;;;;;39.13;21.67;;;;;;;;;;4989951;28;20095;-73
2022/12/15 17:00:58;;;;;;;41.78;21.77;;;;;;;;;;4989122;28;20128;-71
2022/12/15 17:03:26;;;;;;;36.88;20.75;;;;;;;;;;4984178;28;20046;-71
2022/12/15 17:05:54;;;;;;;40.72;23.38;;;;;;;;;;4981093;28;20038;-70
2022/12/15 17:08:39;;;;;;;38.85;20.65;;;;;;;;;;4986722;28;20031;-69